createdAt,value
2019-02-12T00:00:40.548Z,71.24
2019-02-12T00:01:47.728Z,71.19
2019-02-12T00:02:54.851Z,71.17
2019-02-12T00:04:02.048Z,71.17
2019-02-12T00:05:08.772Z,71.18
2019-02-12T00:06:15.407Z,71.24
2019-02-12T00:07:22.583Z,71.22
2019-02-12T00:08:29.233Z,71.20
2019-02-12T00:09:36.534Z,71.18
2019-02-12T00:10:43.151Z,71.14
2019-02-12T00:11:50.263Z,71.12
2019-02-12T00:12:57.359Z,71.15
2019-02-12T00:14:04.420Z,71.17
2019-02-12T00:15:11.543Z,71.25
2019-02-12T00:16:18.619Z,71.23
2019-02-12T00:17:25.683Z,71.22
2019-02-12T00:18:32.780Z,71.22
2019-02-12T00:19:39.887Z,71.21
2019-02-12T00:20:46.957Z,71.20
2019-02-12T00:21:54.023Z,71.16
2019-02-12T00:23:01.248Z,71.20
2019-02-12T00:24:07.907Z,71.23
2019-02-12T00:25:14.935Z,71.22
2019-02-12T00:26:22.075Z,71.23
2019-02-12T00:27:29.157Z,71.21
2019-02-12T00:28:36.244Z,71.22
2019-02-12T00:29:43.319Z,71.23
2019-02-12T00:30:50.368Z,71.26
2019-02-12T00:31:57.499Z,71.26
2019-02-12T00:33:04.660Z,71.26
2019-02-12T00:34:11.748Z,71.32
2019-02-12T00:35:18.835Z,71.34
2019-02-12T00:36:25.835Z,71.27
2019-02-12T00:37:32.921Z,71.30
2019-02-12T00:38:40.031Z,71.32
2019-02-12T00:39:47.179Z,71.32
2019-02-12T00:40:54.302Z,71.31
2019-02-12T00:42:01.421Z,71.25
2019-02-12T00:43:08.161Z,71.27
2019-02-12T00:44:15.226Z,71.31
2019-02-12T00:45:22.376Z,71.35
2019-02-12T00:46:29.448Z,71.29
2019-02-12T00:47:36.516Z,71.31
2019-02-12T00:48:43.528Z,71.35
2019-02-12T00:49:50.567Z,71.35
2019-02-12T00:50:57.604Z,71.33
2019-02-12T00:52:04.739Z,71.33
2019-02-12T00:53:11.758Z,71.37
2019-02-12T00:54:18.859Z,71.32
2019-02-12T00:55:25.945Z,71.32
2019-02-12T00:56:33.060Z,71.30
2019-02-12T00:57:40.111Z,71.31
2019-02-12T00:58:47.178Z,71.31
2019-02-12T00:59:54.280Z,71.33
2019-02-12T01:01:01.393Z,71.35
2019-02-12T01:02:08.512Z,71.34
2019-02-12T01:03:15.127Z,71.35
2019-02-12T01:04:22.274Z,71.34
2019-02-12T01:05:28.803Z,71.31
2019-02-12T01:06:35.915Z,71.33
2019-02-12T01:07:42.999Z,71.31
2019-02-12T01:08:49.731Z,71.31
2019-02-12T01:09:56.825Z,71.33
2019-02-12T01:11:03.927Z,71.37
2019-02-12T01:12:11.009Z,71.40
2019-02-12T01:13:18.012Z,71.37
2019-02-12T01:14:25.111Z,71.39
2019-02-12T01:15:32.219Z,71.36
2019-02-12T01:16:39.318Z,71.34
2019-02-12T01:17:46.338Z,71.38
2019-02-12T01:18:53.538Z,71.37
2019-02-12T01:20:00.660Z,71.38
2019-02-12T01:21:07.831Z,71.37
2019-02-12T01:22:14.881Z,71.39
2019-02-12T01:23:22.047Z,71.38
2019-02-12T01:24:28.624Z,71.40
2019-02-12T01:25:35.665Z,71.40
2019-02-12T01:26:42.815Z,71.42
2019-02-12T01:27:49.884Z,71.40
2019-02-12T01:28:57.016Z,71.43
2019-02-12T01:30:04.140Z,71.49
2019-02-12T01:31:11.128Z,71.51
2019-02-12T01:32:17.727Z,71.50
2019-02-12T01:33:24.791Z,71.50
2019-02-12T01:34:31.829Z,71.51
2019-02-12T01:35:38.991Z,71.45
2019-02-12T01:36:45.595Z,71.46
2019-02-12T01:37:52.711Z,71.46
2019-02-12T01:38:59.743Z,71.45
2019-02-12T01:40:06.984Z,71.51
2019-02-12T01:41:13.874Z,71.51
2019-02-12T01:42:20.948Z,71.54
2019-02-12T01:43:28.027Z,71.50
2019-02-12T01:44:35.070Z,71.51
2019-02-12T01:45:42.111Z,71.54
2019-02-12T01:46:49.084Z,71.57
2019-02-12T01:47:56.225Z,71.60
2019-02-12T01:49:03.371Z,71.60
2019-02-12T01:50:10.471Z,71.62
2019-02-12T01:51:17.424Z,71.59
2019-02-12T01:52:24.439Z,71.58
2019-02-12T01:53:31.462Z,71.59
2019-02-12T01:54:38.619Z,71.57
2019-02-12T01:55:45.691Z,71.57
2019-02-12T01:56:52.819Z,71.59
2019-02-12T01:57:59.804Z,71.64
2019-02-12T01:59:06.975Z,71.68
2019-02-12T02:00:13.652Z,71.70
2019-02-12T02:01:20.735Z,71.71
2019-02-12T02:02:29.746Z,71.71
2019-02-12T02:03:34.710Z,71.72
2019-02-12T02:04:41.744Z,71.74
2019-02-12T02:05:48.771Z,71.73
2019-02-12T02:06:55.920Z,71.74
2019-02-12T02:08:03.050Z,71.79
2019-02-12T02:09:09.735Z,71.82
2019-02-12T02:10:16.927Z,71.81
2019-02-12T02:11:23.628Z,71.82
2019-02-12T02:12:30.270Z,71.83
2019-02-12T02:13:37.456Z,71.86
2019-02-12T02:14:44.499Z,71.90
2019-02-12T02:15:51.627Z,71.95
2019-02-12T02:16:58.678Z,71.98
2019-02-12T02:18:05.837Z,72.00
2019-02-12T02:19:12.984Z,72.07
2019-02-12T02:20:19.955Z,72.10
2019-02-12T02:21:27.060Z,72.16
2019-02-12T02:22:34.151Z,72.16
2019-02-12T02:23:41.223Z,72.16
2019-02-12T02:24:48.308Z,72.16
2019-02-12T02:25:55.451Z,72.20
2019-02-12T02:27:02.613Z,72.18
2019-02-12T02:28:09.306Z,72.21
2019-02-12T02:29:16.429Z,72.22
2019-02-12T02:30:23.601Z,72.26
2019-02-12T02:31:30.669Z,72.29
2019-02-12T02:32:37.767Z,72.32
2019-02-12T02:33:44.745Z,72.34
2019-02-12T02:34:52.112Z,72.34
2019-02-12T02:35:58.687Z,72.42
2019-02-12T02:37:05.699Z,72.44
2019-02-12T02:38:12.840Z,72.45
2019-02-12T02:39:19.828Z,72.41
2019-02-12T02:40:26.879Z,72.45
2019-02-12T02:41:33.919Z,72.45
2019-02-12T02:42:41.002Z,72.45
2019-02-12T02:43:48.092Z,72.47
2019-02-12T02:44:55.088Z,72.55
2019-02-12T02:46:02.260Z,72.63
2019-02-12T02:47:08.915Z,72.65
2019-02-12T02:48:16.089Z,72.71
2019-02-12T02:49:23.120Z,72.75
2019-02-12T02:50:30.203Z,72.81
2019-02-12T02:51:37.375Z,72.80
2019-02-12T02:52:43.940Z,72.86
2019-02-12T02:53:51.108Z,72.91
2019-02-12T02:54:58.155Z,72.96
2019-02-12T02:56:05.286Z,72.93
2019-02-12T02:57:12.331Z,72.88
2019-02-12T02:58:19.439Z,72.93
2019-02-12T02:59:26.588Z,72.99
2019-02-12T03:00:33.711Z,73.03
2019-02-12T03:01:40.778Z,73.10
2019-02-12T03:02:47.855Z,73.12
2019-02-12T03:03:54.909Z,73.10
2019-02-12T03:05:01.956Z,73.11
2019-02-12T03:06:08.742Z,73.21
2019-02-12T03:07:15.735Z,73.29
2019-02-12T03:08:22.895Z,73.31
2019-02-12T03:09:30.030Z,73.35
2019-02-12T03:10:37.211Z,73.38
2019-02-12T03:11:43.746Z,73.44
2019-02-12T03:12:50.819Z,73.46
2019-02-12T03:13:57.880Z,73.49
2019-02-12T03:15:04.952Z,73.48
2019-02-12T03:16:11.826Z,73.55
2019-02-12T03:17:18.865Z,73.53
2019-02-12T03:18:25.908Z,73.56
2019-02-12T03:19:32.983Z,73.57
2019-02-12T03:20:40.075Z,73.60
2019-02-12T03:21:47.156Z,73.64
2019-02-12T03:22:54.347Z,73.66
2019-02-12T03:24:01.426Z,73.69
2019-02-12T03:25:08.426Z,73.68
2019-02-12T03:26:15.011Z,73.70
2019-02-12T03:27:22.175Z,73.67
2019-02-12T03:28:28.809Z,73.64
2019-02-12T03:29:35.536Z,73.69
2019-02-12T03:30:42.574Z,73.72
2019-02-12T03:31:49.696Z,73.76
2019-02-12T03:32:57.045Z,73.76
2019-02-12T03:34:03.566Z,73.78
2019-02-12T03:35:10.621Z,73.78
2019-02-12T03:36:17.785Z,73.76
2019-02-12T03:37:24.847Z,73.74
2019-02-12T03:38:31.911Z,73.78
2019-02-12T03:39:39.051Z,73.78
2019-02-12T03:40:46.136Z,73.82
2019-02-12T03:42:19.764Z,73.88
2019-02-12T03:43:26.870Z,73.95
2019-02-12T03:44:33.798Z,73.95
2019-02-12T03:45:40.900Z,73.98
2019-02-12T03:46:47.971Z,74.01
2019-02-12T03:47:55.031Z,74.02
2019-02-12T03:49:02.147Z,74.03
2019-02-12T03:50:09.220Z,74.01
2019-02-12T03:51:15.939Z,74.01
2019-02-12T03:52:23.127Z,74.00
2019-02-12T03:53:30.469Z,73.99
2019-02-12T03:54:37.161Z,74.04
2019-02-12T03:55:43.763Z,74.05
2019-02-12T03:56:50.881Z,74.10
2019-02-12T03:57:58.031Z,74.12
2019-02-12T03:59:04.916Z,74.09
2019-02-12T04:00:12.039Z,74.09
2019-02-12T04:01:18.671Z,74.10
2019-02-12T04:02:25.746Z,74.13
2019-02-12T04:03:32.814Z,74.16
2019-02-12T04:04:39.500Z,74.17
2019-02-12T04:05:46.645Z,74.17
2019-02-12T04:06:54.140Z,74.18
2019-02-12T04:08:00.722Z,74.17
2019-02-12T04:09:07.572Z,74.21
2019-02-12T04:10:14.893Z,74.21
2019-02-12T04:11:21.533Z,74.22
2019-02-12T04:12:28.587Z,74.18
2019-02-12T04:13:35.675Z,74.15
2019-02-12T04:14:42.819Z,74.17
2019-02-12T04:15:49.876Z,74.22
2019-02-12T04:16:56.927Z,74.21
2019-02-12T04:18:04.005Z,74.22
2019-02-12T04:19:11.090Z,74.25
2019-02-12T04:20:18.263Z,74.23
2019-02-12T04:21:24.787Z,74.25
2019-02-12T04:22:31.895Z,74.22
2019-02-12T04:23:39.111Z,74.19
2019-02-12T04:24:45.713Z,74.15
2019-02-12T04:25:52.865Z,74.14
2019-02-12T04:26:59.974Z,74.16
2019-02-12T04:28:07.141Z,74.20
2019-02-12T04:29:13.664Z,74.20
2019-02-12T04:30:20.773Z,74.18
2019-02-12T04:31:27.490Z,74.20
2019-02-12T04:32:34.739Z,74.24
2019-02-12T04:33:41.299Z,74.19
2019-02-12T04:34:48.414Z,74.19
2019-02-12T04:35:57.360Z,74.29
2019-02-12T04:37:02.515Z,74.32
2019-02-12T04:38:09.236Z,74.33
2019-02-12T04:39:16.554Z,74.30
2019-02-12T04:40:23.212Z,74.31
2019-02-12T04:41:29.823Z,74.35
2019-02-12T04:42:37.039Z,74.35
2019-02-12T04:43:43.692Z,74.38
2019-02-12T04:44:50.915Z,74.37
2019-02-12T04:45:57.520Z,74.37
2019-02-12T04:47:04.284Z,74.35
2019-02-12T04:48:11.365Z,74.36
2019-02-12T04:49:18.504Z,74.38
2019-02-12T04:50:25.700Z,74.40
2019-02-12T04:51:32.867Z,74.47
2019-02-12T04:52:39.872Z,74.49
2019-02-12T04:53:46.877Z,74.52
2019-02-12T04:54:54.060Z,74.56
2019-02-12T04:56:01.128Z,74.58
2019-02-12T04:57:08.346Z,74.58
2019-02-12T04:58:15.492Z,74.64
2019-02-12T04:59:22.268Z,74.62
2019-02-12T05:00:29.023Z,74.59
2019-02-12T05:01:35.728Z,74.61
2019-02-12T05:02:42.593Z,74.57
2019-02-12T05:03:49.276Z,74.57
2019-02-12T05:04:56.401Z,74.60
2019-02-12T05:06:03.517Z,74.63
2019-02-12T05:07:10.307Z,74.64
2019-02-12T05:08:17.384Z,74.65
2019-02-12T05:09:24.519Z,74.70
2019-02-12T05:10:31.191Z,74.70
2019-02-12T05:11:38.378Z,74.75
2019-02-12T05:12:45.288Z,74.78
2019-02-12T05:13:52.510Z,74.77
2019-02-12T05:14:59.510Z,74.76
2019-02-12T05:16:06.645Z,74.80
2019-02-12T05:17:13.724Z,74.84
2019-02-12T05:18:20.834Z,74.86
2019-02-12T05:19:27.924Z,74.90
2019-02-12T05:20:35.048Z,74.88
2019-02-12T05:21:42.267Z,74.89
2019-02-12T05:22:48.912Z,74.88
2019-02-12T05:23:56.004Z,74.94
2019-02-12T05:25:03.126Z,74.95
2019-02-12T05:26:10.130Z,74.96
2019-02-12T05:27:17.151Z,75.01
2019-02-12T05:28:24.258Z,74.99
2019-02-12T05:29:31.340Z,75.03
2019-02-12T05:30:38.478Z,75.05
2019-02-12T05:31:45.794Z,75.00
2019-02-12T05:32:52.439Z,75.01
2019-02-12T05:33:59.551Z,75.02
2019-02-12T05:35:06.676Z,75.08
2019-02-12T05:36:13.275Z,75.06
2019-02-12T05:37:20.443Z,75.11
2019-02-12T05:38:27.556Z,75.14
2019-02-12T05:39:34.629Z,75.15
2019-02-12T05:40:41.699Z,75.18
2019-02-12T05:41:48.831Z,75.22
2019-02-12T05:42:55.871Z,75.24
2019-02-12T05:44:03.001Z,75.25
2019-02-12T05:45:10.132Z,75.25
2019-02-12T05:46:17.257Z,75.25
2019-02-12T05:47:24.313Z,75.22
2019-02-12T05:48:31.413Z,75.24
2019-02-12T05:49:38.548Z,75.19
2019-02-12T05:50:45.445Z,75.16
2019-02-12T05:51:52.395Z,75.19
2019-02-12T05:52:59.525Z,75.18
2019-02-12T05:54:06.446Z,75.22
2019-02-12T05:55:13.028Z,75.23
2019-02-12T05:56:20.312Z,75.27
2019-02-12T05:57:26.840Z,75.27
2019-02-12T05:58:33.910Z,75.31
2019-02-12T05:59:40.992Z,75.32
2019-02-12T06:00:48.075Z,75.30
2019-02-12T06:01:55.284Z,75.33
2019-02-12T06:03:01.902Z,75.33
2019-02-12T06:04:09.096Z,75.32
2019-02-12T06:05:16.241Z,75.37
2019-02-12T06:06:23.104Z,75.34
2019-02-12T06:07:30.134Z,75.35
2019-02-12T06:08:37.293Z,75.29
2019-02-12T06:09:43.888Z,75.31
2019-02-12T06:10:50.949Z,75.35
2019-02-12T06:11:58.038Z,75.33
2019-02-12T06:13:05.301Z,75.36
2019-02-12T06:14:11.916Z,75.34
2019-02-12T06:15:18.956Z,75.34
2019-02-12T06:16:26.019Z,75.33
2019-02-12T06:17:33.093Z,75.33
2019-02-12T06:18:40.369Z,75.35
2019-02-12T06:19:47.056Z,75.33
2019-02-12T06:20:53.692Z,75.33
2019-02-12T06:22:00.743Z,75.34
2019-02-12T06:23:07.869Z,75.36
2019-02-12T06:24:14.959Z,75.42
2019-02-12T06:25:22.149Z,75.44
2019-02-12T06:26:28.770Z,75.45
2019-02-12T06:27:35.877Z,75.46
2019-02-12T06:28:42.919Z,75.49
2019-02-12T06:29:50.031Z,75.48
2019-02-12T06:30:57.095Z,75.51
2019-02-12T06:32:04.245Z,75.53
2019-02-12T06:33:11.277Z,75.50
2019-02-12T06:34:18.440Z,75.51
2019-02-12T06:35:25.492Z,75.52
2019-02-12T06:36:32.552Z,75.50
2019-02-12T06:37:39.622Z,75.50
2019-02-12T06:38:46.705Z,75.54
2019-02-12T06:39:53.891Z,75.57
2019-02-12T06:41:00.484Z,75.60
2019-02-12T06:42:07.639Z,75.63
2019-02-12T06:43:14.648Z,75.67
2019-02-12T06:44:21.882Z,75.73
2019-02-12T06:45:28.426Z,75.76
2019-02-12T06:46:35.510Z,75.81
2019-02-12T06:47:42.540Z,75.85
2019-02-12T06:48:49.600Z,75.85
2019-02-12T06:49:56.752Z,75.83
2019-02-12T06:51:03.916Z,75.85
2019-02-12T06:52:11.000Z,75.86
2019-02-12T06:53:18.072Z,75.88
2019-02-12T06:54:25.187Z,75.91
2019-02-12T06:55:32.299Z,75.92
2019-02-12T06:56:39.395Z,75.94
2019-02-12T06:57:46.484Z,75.97
2019-02-12T06:58:53.691Z,76.01
2019-02-12T07:00:00.335Z,76.05
2019-02-12T07:01:07.150Z,76.08
2019-02-12T07:02:13.716Z,76.12
2019-02-12T07:03:20.571Z,76.13
2019-02-12T07:04:27.300Z,76.18
2019-02-12T07:05:34.383Z,76.23
2019-02-12T07:06:41.517Z,76.29
2019-02-12T07:07:48.654Z,76.38
2019-02-12T07:08:58.248Z,76.43
2019-02-12T07:10:05.038Z,76.51
2019-02-12T07:11:11.708Z,76.54
2019-02-12T07:12:18.489Z,76.60
2019-02-12T07:14:33.946Z,76.63
2019-02-12T07:15:40.899Z,76.73
2019-02-12T07:16:47.940Z,76.77
2019-02-12T07:17:54.699Z,76.84
2019-02-12T07:19:01.563Z,76.82
2019-02-12T07:20:08.488Z,76.90
2019-02-12T07:21:15.299Z,76.93
2019-02-12T07:22:22.708Z,76.95
2019-02-12T07:23:29.681Z,77.02
2019-02-12T07:25:41.047Z,77.05
2019-02-12T07:26:47.944Z,77.10
2019-02-12T07:27:54.852Z,77.15
2019-02-12T07:29:02.049Z,77.21
2019-02-12T07:30:08.836Z,77.20
2019-02-12T07:31:15.777Z,77.27
2019-02-12T07:32:22.895Z,77.30
2019-02-12T07:33:29.612Z,77.34
2019-02-12T07:34:42.508Z,77.43
2019-02-12T07:36:00.836Z,77.45
2019-02-12T07:37:07.635Z,77.49
2019-02-12T07:38:14.631Z,77.55
2019-02-12T07:39:21.671Z,77.58
2019-02-12T07:40:28.434Z,77.62
2019-02-12T07:41:35.079Z,77.69
2019-02-12T07:42:41.896Z,77.68
2019-02-12T07:43:48.978Z,77.75
2019-02-12T07:44:55.755Z,77.80
2019-02-12T07:46:02.640Z,77.85
2019-02-12T07:47:09.687Z,77.87
2019-02-12T07:48:16.889Z,77.92
2019-02-12T07:50:31.359Z,77.93
2019-02-12T07:51:38.320Z,78.02
2019-02-12T07:53:50.856Z,78.04
2019-02-12T07:54:57.867Z,78.14
2019-02-12T07:56:04.741Z,78.17
2019-02-12T07:57:11.592Z,78.23
2019-02-12T07:58:18.782Z,78.26
2019-02-12T07:59:25.797Z,78.31
2019-02-12T08:00:38.273Z,78.37
2019-02-12T08:01:44.908Z,78.38
2019-02-12T08:02:51.986Z,78.43
2019-02-12T08:04:08.021Z,78.48
2019-02-12T08:05:15.147Z,78.53
2019-02-12T08:06:22.082Z,78.56
2019-02-12T08:07:28.762Z,78.58
2019-02-12T08:08:35.752Z,78.62
2019-02-12T08:09:42.388Z,78.68
2019-02-12T08:10:49.265Z,78.73
2019-02-12T08:11:56.276Z,78.79
2019-02-12T08:13:03.096Z,78.83
2019-02-12T08:14:09.750Z,78.85
2019-02-12T08:15:16.768Z,78.93
2019-02-12T08:16:23.461Z,78.95
2019-02-12T08:17:30.391Z,79.03
2019-02-12T08:19:50.802Z,79.07
2019-02-12T08:20:57.631Z,79.18
2019-02-12T08:22:04.452Z,79.23
2019-02-12T08:23:11.448Z,79.30
2019-02-12T08:24:18.128Z,79.33
2019-02-12T08:25:24.806Z,79.36
2019-02-12T08:26:31.653Z,79.41
2019-02-12T08:27:38.840Z,79.46
2019-02-12T08:28:45.832Z,79.51
2019-02-12T08:29:52.743Z,79.55
2019-02-12T08:32:09.133Z,79.58
2019-02-12T08:33:16.124Z,79.66
2019-02-12T08:34:22.911Z,79.72
2019-02-12T08:35:29.629Z,79.75
2019-02-12T08:36:36.488Z,79.79
2019-02-12T08:37:43.462Z,79.80
2019-02-12T08:38:50.231Z,79.84
2019-02-12T08:39:56.858Z,79.90
2019-02-12T08:41:03.739Z,79.94
2019-02-12T08:42:10.443Z,79.99
2019-02-12T08:43:17.636Z,80.03
2019-02-12T08:45:30.139Z,80.08
2019-02-12T08:46:37.281Z,80.23
2019-02-12T08:47:44.220Z,80.32
2019-02-12T08:48:51.206Z,80.40
2019-02-12T08:49:57.780Z,80.49
2019-02-12T08:52:21.177Z,80.55
2019-02-12T08:53:27.920Z,80.73
2019-02-12T08:54:34.621Z,80.81
2019-02-12T08:55:41.429Z,80.89
2019-02-12T08:56:48.184Z,80.98
2019-02-12T08:57:55.083Z,81.09
2019-02-12T08:59:02.313Z,81.16
2019-02-12T09:00:12.882Z,81.23
2019-02-12T09:01:19.663Z,81.35
2019-02-12T09:02:26.583Z,81.45
2019-02-12T09:03:33.420Z,81.51
2019-02-12T09:04:40.416Z,81.59
2019-02-12T09:05:47.300Z,81.70
2019-02-12T09:06:54.145Z,81.78
2019-02-12T09:09:08.675Z,81.88
2019-02-12T09:11:19.228Z,82.00
2019-02-12T09:12:26.773Z,82.16
2019-02-12T09:13:33.099Z,82.24
2019-02-12T09:14:39.915Z,82.28
2019-02-12T09:15:46.604Z,82.33
2019-02-12T09:16:53.431Z,82.41
2019-02-12T09:18:00.245Z,82.48
2019-02-12T09:19:07.136Z,82.55
2019-02-12T09:21:23.680Z,82.61
2019-02-12T09:22:30.404Z,82.75
2019-02-12T09:24:40.853Z,82.82
2019-02-12T09:25:47.762Z,82.93
2019-02-12T09:26:54.669Z,82.98
2019-02-12T09:29:05.213Z,83.05
2019-02-12T09:30:12.343Z,83.14
2019-02-12T09:32:34.032Z,83.21
2019-02-12T09:34:46.201Z,83.36
2019-02-12T09:35:53.207Z,83.48
2019-02-12T09:38:08.568Z,83.54
2019-02-12T09:39:15.628Z,83.66
2019-02-12T09:40:22.607Z,83.71
2019-02-12T09:41:29.509Z,83.76
2019-02-12T09:42:36.392Z,83.80
2019-02-12T09:43:43.204Z,83.86
2019-02-12T09:44:50.123Z,83.91
2019-02-12T09:47:06.161Z,84.00
2019-02-12T09:48:13.141Z,84.07
2019-02-12T09:49:20.213Z,84.12
2019-02-12T09:50:27.138Z,84.18
2019-02-12T09:51:33.819Z,84.25
2019-02-12T09:52:40.784Z,84.30
2019-02-12T09:54:51.364Z,84.34
2019-02-12T09:55:57.992Z,84.40
2019-02-12T09:57:04.916Z,84.50
2019-02-12T09:58:11.998Z,84.52
2019-02-12T09:59:18.762Z,84.58
2019-02-12T10:00:25.591Z,84.61
2019-02-12T10:01:32.139Z,84.68
2019-02-12T10:02:39.002Z,84.70
2019-02-12T10:03:45.849Z,84.78
2019-02-12T10:04:52.893Z,84.80
2019-02-12T10:06:04.551Z,84.84
2019-02-12T10:07:06.593Z,84.88
2019-02-12T10:08:13.785Z,84.94
2019-02-12T10:09:20.484Z,84.97
2019-02-12T10:10:27.249Z,85.02
2019-02-12T10:11:34.311Z,85.07
2019-02-12T10:12:41.296Z,85.10
2019-02-12T10:13:48.093Z,85.14
2019-02-12T10:14:54.743Z,85.19
2019-02-12T10:16:01.544Z,85.21
2019-02-12T10:17:08.644Z,85.26
2019-02-12T10:18:15.169Z,85.31
2019-02-12T10:19:22.084Z,85.34
2019-02-12T10:20:28.865Z,85.40
2019-02-12T10:21:35.579Z,85.43
2019-02-12T10:22:42.522Z,85.46
2019-02-12T10:23:49.412Z,85.47
2019-02-12T10:24:56.088Z,85.55
2019-02-12T10:26:03.243Z,85.57
2019-02-12T10:27:10.052Z,85.62
2019-02-12T10:28:17.021Z,85.66
2019-02-12T10:29:24.128Z,85.66
2019-02-12T10:30:31.107Z,85.72
2019-02-12T10:31:37.972Z,85.74
2019-02-12T10:32:45.058Z,85.82
2019-02-12T10:33:52.262Z,85.86
2019-02-12T10:34:58.873Z,85.89
2019-02-12T10:36:05.839Z,85.92
2019-02-12T10:37:12.904Z,85.96
2019-02-12T10:38:20.010Z,85.96
2019-02-12T10:39:26.978Z,86.01
2019-02-12T10:40:34.036Z,86.03
2019-02-12T10:41:41.160Z,86.04
2019-02-12T10:42:48.212Z,86.09
2019-02-12T10:43:55.299Z,86.10
2019-02-12T10:45:02.433Z,86.16
2019-02-12T10:46:09.223Z,86.17
2019-02-12T10:47:16.272Z,86.20
2019-02-12T10:48:23.408Z,86.23
2019-02-12T10:49:30.544Z,86.25
2019-02-12T10:50:37.673Z,86.30
2019-02-12T10:51:44.702Z,86.33
2019-02-12T10:52:51.837Z,86.35
2019-02-12T10:53:58.896Z,86.36
2019-02-12T10:55:05.950Z,86.40
2019-02-12T10:56:12.793Z,86.41
2019-02-12T10:57:19.850Z,86.45
2019-02-12T10:58:26.945Z,86.48
2019-02-12T10:59:33.764Z,86.51
2019-02-12T11:00:40.806Z,86.53
2019-02-12T11:01:47.944Z,86.55
2019-02-12T11:02:59.750Z,86.58
2019-02-12T11:04:01.832Z,86.62
2019-02-12T11:05:08.992Z,86.66
2019-02-12T11:06:16.064Z,86.70
2019-02-12T11:07:23.228Z,86.68
2019-02-12T11:08:30.272Z,86.72
2019-02-12T11:09:37.343Z,86.73
2019-02-12T11:10:45.127Z,86.75
2019-02-12T11:11:50.960Z,86.77
2019-02-12T11:12:58.046Z,86.80
2019-02-12T11:14:05.147Z,86.80
2019-02-12T11:15:12.196Z,86.82
2019-02-12T11:16:19.222Z,86.85
2019-02-12T11:17:26.344Z,86.87
2019-02-12T11:18:33.436Z,86.92
2019-02-12T11:19:40.432Z,86.94
2019-02-12T11:20:47.492Z,86.94
2019-02-12T11:21:54.545Z,86.93
2019-02-12T11:23:01.670Z,86.97
2019-02-12T11:24:08.882Z,87.01
2019-02-12T11:25:15.610Z,87.02
2019-02-12T11:26:22.286Z,87.02
2019-02-12T11:27:29.378Z,87.07
2019-02-12T11:28:36.546Z,87.10
2019-02-12T11:29:43.663Z,87.12
2019-02-12T11:30:50.776Z,87.14
2019-02-12T11:31:57.816Z,87.18
2019-02-12T11:33:04.965Z,87.19
2019-02-12T11:34:12.026Z,87.21
2019-02-12T11:35:19.096Z,87.26
2019-02-12T11:36:26.232Z,87.27
2019-02-12T11:37:32.879Z,87.28
2019-02-12T11:38:39.991Z,87.31
2019-02-12T11:39:47.171Z,87.33
2019-02-12T11:40:54.316Z,87.34
2019-02-12T11:42:01.372Z,87.39
2019-02-12T11:43:08.572Z,87.43
2019-02-12T11:44:15.604Z,87.47
2019-02-12T11:45:22.755Z,87.49
2019-02-12T11:46:29.331Z,87.52
2019-02-12T11:47:36.480Z,87.53
2019-02-12T11:48:43.593Z,87.55
2019-02-12T11:49:50.244Z,87.60
2019-02-12T11:50:57.367Z,87.63
2019-02-12T11:52:04.516Z,87.66
2019-02-12T11:53:11.120Z,87.68
2019-02-12T11:54:18.204Z,87.70
2019-02-12T11:55:25.623Z,87.74
2019-02-12T11:56:32.047Z,87.77
2019-02-12T11:57:41.396Z,87.80
2019-02-12T11:58:45.833Z,87.85
2019-02-12T11:59:52.999Z,87.86
2019-02-12T12:01:00.020Z,87.90
2019-02-12T12:02:07.341Z,87.94
2019-02-12T12:03:14.417Z,87.97
2019-02-12T12:04:21.552Z,88.00
2019-02-12T12:05:28.641Z,88.02
2019-02-12T12:06:35.628Z,88.03
2019-02-12T12:07:42.969Z,88.05
2019-02-12T12:08:49.619Z,88.10
2019-02-12T12:09:56.773Z,88.13
2019-02-12T12:11:03.956Z,88.18
2019-02-12T12:12:11.039Z,88.22
2019-02-12T12:13:18.084Z,88.25
2019-02-12T12:14:25.233Z,88.25
2019-02-12T12:15:32.188Z,88.29
2019-02-12T12:16:39.280Z,88.27
2019-02-12T12:17:46.400Z,88.30
2019-02-12T12:18:53.562Z,88.31
2019-02-12T12:20:00.687Z,88.34
2019-02-12T12:21:07.896Z,88.36
2019-02-12T12:22:14.953Z,88.39
2019-02-12T12:23:22.145Z,88.44
2019-02-12T12:24:29.216Z,88.45
2019-02-12T12:25:36.369Z,88.48
2019-02-12T12:26:43.492Z,88.51
2019-02-12T12:27:50.563Z,88.51
2019-02-12T12:28:57.636Z,88.56
2019-02-12T12:30:04.795Z,88.58
2019-02-12T12:31:11.668Z,88.60
2019-02-12T12:32:18.731Z,88.62
2019-02-12T12:33:25.841Z,88.63
2019-02-12T12:34:32.961Z,88.65
2019-02-12T12:35:40.095Z,88.70
2019-02-12T12:36:46.723Z,88.71
2019-02-12T12:37:53.864Z,88.73
2019-02-12T12:39:00.922Z,88.74
2019-02-12T12:40:07.768Z,88.78
2019-02-12T12:41:14.477Z,88.80
2019-02-12T12:42:21.575Z,88.80
2019-02-12T12:43:29.815Z,88.84
2019-02-12T12:44:35.668Z,88.84
2019-02-12T12:45:42.765Z,88.85
2019-02-12T12:46:49.928Z,88.88
2019-02-12T12:47:56.424Z,88.88
2019-02-12T12:49:03.540Z,88.91
2019-02-12T12:50:10.147Z,88.94
2019-02-12T12:51:17.343Z,88.94
2019-02-12T12:52:24.400Z,88.96
2019-02-12T12:53:31.489Z,88.98
2019-02-12T12:54:38.640Z,88.98
2019-02-12T12:55:45.671Z,88.96
2019-02-12T12:56:53.051Z,88.98
2019-02-12T12:57:59.612Z,88.99
2019-02-12T12:59:06.868Z,89.02
2019-02-12T13:00:13.470Z,89.03
2019-02-12T13:01:20.107Z,89.02
2019-02-12T13:02:27.182Z,89.03
2019-02-12T13:03:34.245Z,89.06
2019-02-12T13:04:41.320Z,89.05
2019-02-12T13:05:48.415Z,89.07
2019-02-12T13:06:55.600Z,89.06
2019-02-12T13:08:02.729Z,89.08
2019-02-12T13:09:09.809Z,89.08
2019-02-12T13:10:17.008Z,89.08
2019-02-12T13:11:23.724Z,89.06
2019-02-12T13:12:30.402Z,89.04
2019-02-12T13:13:37.503Z,89.03
2019-02-12T13:14:44.063Z,88.99
2019-02-12T13:15:51.137Z,89.02
2019-02-12T13:16:58.136Z,88.97
2019-02-12T13:18:05.510Z,88.96
2019-02-12T13:19:12.148Z,88.94
2019-02-12T13:20:19.320Z,88.92
2019-02-12T13:21:25.943Z,88.89
2019-02-12T13:22:33.316Z,88.89
2019-02-12T13:23:39.884Z,88.83
2019-02-12T13:24:46.982Z,88.82
2019-02-12T13:25:54.135Z,88.78
2019-02-12T13:27:01.183Z,88.77
2019-02-12T13:28:08.377Z,88.78
2019-02-12T13:29:15.119Z,88.81
2019-02-12T13:30:22.291Z,88.85
2019-02-12T13:31:29.429Z,88.89
2019-02-12T13:32:36.580Z,88.91
2019-02-12T13:33:43.249Z,88.93
2019-02-12T13:34:50.322Z,88.92
2019-02-12T13:35:57.376Z,88.92
2019-02-12T13:37:04.511Z,88.90
2019-02-12T13:38:11.582Z,88.89
2019-02-12T13:39:18.716Z,88.89
2019-02-12T13:40:25.420Z,88.92
2019-02-12T13:41:32.472Z,88.96
2019-02-12T13:42:39.574Z,88.96
2019-02-12T13:43:46.729Z,88.98
2019-02-12T13:44:53.882Z,88.99
2019-02-12T13:46:00.964Z,88.90
2019-02-12T13:47:08.412Z,88.80
2019-02-12T13:48:14.982Z,88.74
2019-02-12T13:49:22.140Z,88.75
2019-02-12T13:50:29.158Z,88.78
2019-02-12T13:51:36.432Z,88.72
2019-02-12T13:52:43.133Z,88.68
2019-02-12T13:53:49.735Z,88.64
2019-02-12T13:54:56.870Z,88.68
2019-02-12T13:56:04.077Z,88.66
2019-02-12T13:57:10.672Z,88.57
2019-02-12T13:58:17.828Z,88.46
2019-02-12T13:59:24.859Z,88.38
2019-02-12T14:00:31.929Z,88.29
2019-02-12T14:01:39.217Z,88.28
2019-02-12T14:02:45.832Z,88.28
2019-02-12T14:03:53.022Z,88.22
2019-02-12T14:04:59.576Z,88.13
2019-02-12T14:06:06.886Z,88.09
2019-02-12T14:07:13.436Z,88.03
2019-02-12T14:08:20.612Z,87.99
2019-02-12T14:09:27.261Z,87.91
2019-02-12T14:10:34.374Z,87.78
2019-02-12T14:11:41.487Z,87.66
2019-02-12T14:12:48.532Z,87.58
2019-02-12T14:13:55.652Z,87.51
2019-02-12T14:15:02.767Z,87.44
2019-02-12T14:16:09.637Z,87.35
2019-02-12T14:17:16.703Z,87.27
2019-02-12T14:18:23.905Z,87.17
2019-02-12T14:19:30.603Z,87.10
2019-02-12T14:20:37.279Z,86.99
2019-02-12T14:21:43.921Z,86.90
2019-02-12T14:22:50.997Z,86.83
2019-02-12T14:23:58.133Z,86.82
2019-02-12T14:25:04.759Z,86.69
2019-02-12T14:26:11.667Z,86.61
2019-02-12T14:27:18.796Z,86.58
2019-02-12T14:28:25.909Z,86.55
2019-02-12T14:29:32.971Z,86.49
2019-02-12T14:30:40.103Z,86.45
2019-02-12T14:31:52.881Z,86.41
2019-02-12T14:32:54.298Z,86.31
2019-02-12T14:34:01.394Z,86.18
2019-02-12T14:35:08.544Z,86.09
2019-02-12T14:36:15.212Z,85.97
2019-02-12T14:37:22.395Z,85.86
2019-02-12T14:38:30.568Z,85.73
2019-02-12T14:39:36.123Z,85.65
2019-02-12T14:40:43.243Z,85.54
2019-02-12T14:41:50.280Z,85.47
2019-02-12T14:42:57.376Z,85.40
2019-02-12T14:44:04.490Z,85.32